createdAt,value
2023-02-23T00:00:28.516Z,2.50
2023-02-23T00:01:31.441Z,2.35
2023-02-23T00:02:34.220Z,2.65
2023-02-23T00:03:37.106Z,2.58
2023-02-23T00:04:39.879Z,2.70
2023-02-23T00:05:42.710Z,2.70
2023-02-23T00:06:45.651Z,2.65
2023-02-23T00:07:48.805Z,2.65
2023-02-23T00:08:52.586Z,2.50
2023-02-23T00:09:57.260Z,2.85
2023-02-23T00:11:00.616Z,3.40
2023-02-23T00:12:09.313Z,2.72
2023-02-23T00:13:12.144Z,2.75
2023-02-23T00:14:15.210Z,2.83
2023-02-23T00:15:18.209Z,3.28
2023-02-23T00:16:23.393Z,2.88
2023-02-23T00:17:26.200Z,3.13
2023-02-23T00:18:30.423Z,2.78
2023-02-23T00:19:37.978Z,2.85
2023-02-23T00:20:45.891Z,2.42
2023-02-23T00:21:48.662Z,2.30
2023-02-23T00:22:56.982Z,2.55
2023-02-23T00:24:05.082Z,2.65
2023-02-23T00:25:15.354Z,2.70
2023-02-23T00:26:21.068Z,2.92
2023-02-23T00:27:23.837Z,2.72
2023-02-23T00:28:26.573Z,2.85
2023-02-23T00:29:29.671Z,2.80
2023-02-23T00:30:32.450Z,2.67
2023-02-23T00:31:35.918Z,2.80
2023-02-23T00:32:38.872Z,3.03
2023-02-23T00:33:42.841Z,3.03
2023-02-23T00:34:49.256Z,3.10
2023-02-23T00:35:52.175Z,3.03
2023-02-23T00:36:56.048Z,3.60
2023-02-23T00:37:58.901Z,2.97
2023-02-23T00:39:18.869Z,3.42
2023-02-23T00:40:23.179Z,2.83
2023-02-23T00:41:28.806Z,3.15
2023-02-23T00:42:32.449Z,2.67
2023-02-23T00:43:39.175Z,3.22
2023-02-23T00:44:42.631Z,3.25
2023-02-23T00:45:46.983Z,3.40
2023-02-23T00:46:51.882Z,2.90
2023-02-23T00:47:54.969Z,3.03
2023-02-23T00:48:59.431Z,2.92
2023-02-23T00:50:02.516Z,3.25
2023-02-23T00:51:06.437Z,3.20
2023-02-23T00:52:09.411Z,2.83
2023-02-23T00:53:12.576Z,2.78
2023-02-23T00:54:16.690Z,2.80
2023-02-23T00:55:20.778Z,3.30
2023-02-23T00:56:23.994Z,3.20
2023-02-23T00:57:26.813Z,3.53
2023-02-23T00:58:31.762Z,3.33
2023-02-23T00:59:34.580Z,2.60
2023-02-23T01:00:42.530Z,2.42
2023-02-23T01:01:45.724Z,2.72
2023-02-23T01:02:48.958Z,3.20
2023-02-23T01:03:53.527Z,2.00
2023-02-23T01:04:56.488Z,2.67
2023-02-23T01:06:06.462Z,3.20
2023-02-23T01:07:09.266Z,2.95
2023-02-23T01:08:12.547Z,2.80
2023-02-23T01:09:28.622Z,2.55
2023-02-23T01:10:31.468Z,2.75
2023-02-23T01:11:34.173Z,2.00
2023-02-23T01:12:36.911Z,2.85
2023-02-23T01:13:41.938Z,2.40
2023-02-23T01:14:44.782Z,2.50
2023-02-23T01:15:48.545Z,3.15
2023-02-23T01:16:51.795Z,2.58
2023-02-23T01:17:54.555Z,2.92
2023-02-23T01:19:00.202Z,2.72
2023-02-23T01:20:08.392Z,2.80
2023-02-23T01:21:23.296Z,2.90
2023-02-23T01:22:26.062Z,2.70
2023-02-23T01:23:29.108Z,2.75
2023-02-23T01:24:32.035Z,2.05
2023-02-23T01:25:35.359Z,2.78
2023-02-23T01:26:40.679Z,2.35
2023-02-23T01:27:44.051Z,2.20
2023-02-23T01:28:51.540Z,2.47
2023-02-23T01:30:57.928Z,2.15
2023-02-23T01:32:03.269Z,2.58
2023-02-23T01:33:07.444Z,2.67
2023-02-23T01:34:12.206Z,2.20
2023-02-23T01:35:15.107Z,2.13
2023-02-23T01:36:18.953Z,2.70
2023-02-23T01:37:21.948Z,2.83
2023-02-23T01:38:27.202Z,2.40
2023-02-23T01:39:30.206Z,3.17
2023-02-23T01:40:36.995Z,2.67
2023-02-23T01:41:42.664Z,2.03
2023-02-23T01:42:47.265Z,2.72
2023-02-23T01:43:58.565Z,2.58
2023-02-23T01:45:36.688Z,2.80
2023-02-23T01:46:41.986Z,2.67
2023-02-23T01:47:45.073Z,3.20
2023-02-23T01:48:48.962Z,2.40
2023-02-23T01:49:53.092Z,2.05
2023-02-23T01:51:12.728Z,2.47
2023-02-23T01:52:17.777Z,2.47
2023-02-23T01:53:22.115Z,2.47
2023-02-23T01:54:51.462Z,2.17
2023-02-23T01:56:04.041Z,2.17
2023-02-23T01:57:11.098Z,2.15
2023-02-23T01:58:19.957Z,2.03
2023-02-23T01:59:22.805Z,1.98
2023-02-23T02:00:27.060Z,2.70
2023-02-23T02:01:29.874Z,2.88
2023-02-23T02:02:34.096Z,2.40
2023-02-23T02:03:44.172Z,2.38
2023-02-23T02:04:47.996Z,2.30
2023-02-23T02:05:51.701Z,2.38
2023-02-23T02:06:57.048Z,2.15
2023-02-23T02:07:59.985Z,2.67
2023-02-23T02:09:10.778Z,2.72
2023-02-23T02:10:13.688Z,1.83
2023-02-23T02:11:36.320Z,2.95
2023-02-23T02:12:52.228Z,2.95
2023-02-23T02:13:59.134Z,2.53
2023-02-23T02:15:05.155Z,2.47
2023-02-23T02:16:24.755Z,3.50
2023-02-23T02:17:40.647Z,2.05
2023-02-23T02:18:56.616Z,2.83
2023-02-23T02:20:06.628Z,3.10
2023-02-23T02:21:40.319Z,2.65
2023-02-23T02:23:08.720Z,2.45
2023-02-23T02:24:23.187Z,2.50
2023-02-23T02:25:55.594Z,2.83
2023-02-23T02:27:36.741Z,2.63
2023-02-23T02:29:00.002Z,2.63
2023-02-23T02:30:26.703Z,2.90
2023-02-23T02:31:36.642Z,3.33
2023-02-23T02:33:16.738Z,3.25
2023-02-23T02:34:34.651Z,2.95
2023-02-23T02:35:38.390Z,3.33
2023-02-23T02:37:05.572Z,3.95
2023-02-23T02:38:39.010Z,3.00
2023-02-23T02:40:16.461Z,3.63
2023-02-23T02:41:43.021Z,2.85
2023-02-23T02:42:52.906Z,3.50
2023-02-23T02:44:06.236Z,3.15
2023-02-23T02:45:31.055Z,3.00
2023-02-23T02:46:38.997Z,3.33
2023-02-23T02:47:49.156Z,3.25
2023-02-23T02:49:21.447Z,3.50
2023-02-23T02:50:47.065Z,3.50
2023-02-23T02:52:30.474Z,3.60
2023-02-23T02:53:41.972Z,3.03
2023-02-23T02:54:50.607Z,3.42
2023-02-23T02:55:56.843Z,3.78
2023-02-23T02:57:04.647Z,3.65
2023-02-23T02:58:08.699Z,3.42
2023-02-23T02:59:35.580Z,3.25
2023-02-23T03:00:59.075Z,2.70
2023-02-23T03:02:21.829Z,3.25
2023-02-23T03:03:53.612Z,3.15
2023-02-23T03:05:15.012Z,3.65
2023-02-23T03:06:39.428Z,3.05
2023-02-23T03:09:53.985Z,3.08
2023-02-23T03:11:30.435Z,3.10
2023-02-23T03:13:17.257Z,2.72
2023-02-23T03:15:04.400Z,3.08
2023-02-23T03:17:11.290Z,3.08
2023-02-23T03:18:41.179Z,2.97
2023-02-23T03:20:17.825Z,3.65
2023-02-23T03:21:47.872Z,3.22
2023-02-23T03:23:17.207Z,3.03
2023-02-23T03:24:59.134Z,3.55
2023-02-23T03:26:26.339Z,4.00
2023-02-23T03:28:05.687Z,3.13
2023-02-23T03:30:01.085Z,3.22
2023-02-23T03:31:54.583Z,2.95
2023-02-23T03:33:24.358Z,3.45
2023-02-23T03:34:56.272Z,3.17
2023-02-23T03:36:34.821Z,3.35
2023-02-23T03:38:19.561Z,3.78
2023-02-23T03:40:10.444Z,3.83
2023-02-23T03:41:35.564Z,4.03
2023-02-23T03:42:59.542Z,3.72
2023-02-23T03:44:28.696Z,3.97
2023-02-23T03:45:50.818Z,4.05
2023-02-23T03:47:14.072Z,3.53
2023-02-23T03:48:38.630Z,3.85
2023-02-23T03:50:01.966Z,3.80
2023-02-23T03:51:27.644Z,3.97
2023-02-23T03:52:57.279Z,3.58
2023-02-23T03:54:44.073Z,4.30
2023-02-23T03:56:11.080Z,4.07
2023-02-23T03:57:35.466Z,3.58
2023-02-23T03:59:02.523Z,3.63
2023-02-23T04:00:27.806Z,3.88
2023-02-23T04:01:51.420Z,4.13
2023-02-23T04:03:14.650Z,4.60
2023-02-23T04:04:37.409Z,4.10
2023-02-23T04:06:00.543Z,3.92
2023-02-23T04:07:23.087Z,4.50
2023-02-23T04:08:50.175Z,4.25
2023-02-23T04:10:11.797Z,5.13
2023-02-23T04:11:49.792Z,4.50
2023-02-23T04:14:31.623Z,3.92
2023-02-23T04:15:37.917Z,4.53
2023-02-23T04:16:42.309Z,4.57
2023-02-23T04:17:45.265Z,4.75
2023-02-23T04:18:48.041Z,5.40
2023-02-23T04:19:52.852Z,4.68
2023-02-23T04:20:57.523Z,4.85
2023-02-23T04:22:00.453Z,4.65
2023-02-23T04:23:03.256Z,4.93
2023-02-23T04:24:07.364Z,4.93
2023-02-23T04:25:10.569Z,5.57
2023-02-23T04:26:13.440Z,5.00
2023-02-23T04:27:17.210Z,5.00
2023-02-23T04:28:21.314Z,6.13
2023-02-23T04:29:24.467Z,4.90
2023-02-23T04:30:28.732Z,5.70
2023-02-23T04:31:31.570Z,4.82
2023-02-23T04:32:34.494Z,5.00
2023-02-23T04:33:37.353Z,4.68
2023-02-23T04:34:40.469Z,5.95
2023-02-23T04:35:43.299Z,5.80
2023-02-23T04:36:46.181Z,5.65
2023-02-23T04:37:48.926Z,4.90
2023-02-23T04:38:51.722Z,5.15
2023-02-23T04:39:54.499Z,4.70
2023-02-23T04:40:57.228Z,4.43
2023-02-23T04:41:59.985Z,5.35
2023-02-23T04:43:03.104Z,4.88
2023-02-23T04:44:08.161Z,5.43
2023-02-23T04:45:11.571Z,5.15
2023-02-23T04:46:14.562Z,5.50
2023-02-23T04:47:17.722Z,5.43
2023-02-23T04:48:20.609Z,5.18
2023-02-23T04:49:24.159Z,5.05
2023-02-23T04:50:27.278Z,5.22
2023-02-23T04:51:32.488Z,5.05
2023-02-23T04:52:35.398Z,5.47
2023-02-23T04:53:38.753Z,5.10
2023-02-23T04:54:42.179Z,4.72
2023-02-23T04:55:47.292Z,5.13
2023-02-23T04:56:50.121Z,5.38
2023-02-23T04:57:59.294Z,5.32
2023-02-23T04:59:02.197Z,5.95
2023-02-23T05:00:05.918Z,6.05
2023-02-23T05:01:10.191Z,5.32
2023-02-23T05:02:13.167Z,5.82
2023-02-23T05:03:17.750Z,5.50
2023-02-23T05:04:20.533Z,5.90
2023-02-23T05:05:23.382Z,4.20
2023-02-23T05:06:26.603Z,5.18
2023-02-23T05:07:29.390Z,4.57
2023-02-23T05:08:32.361Z,5.93
2023-02-23T05:09:35.407Z,5.13
2023-02-23T05:10:40.173Z,5.15
2023-02-23T05:11:43.334Z,5.20
2023-02-23T05:12:47.205Z,4.80
2023-02-23T05:13:50.161Z,4.55
2023-02-23T05:14:52.961Z,5.60
2023-02-23T05:15:58.621Z,4.63
2023-02-23T05:17:01.523Z,4.70
2023-02-23T05:18:04.370Z,5.45
2023-02-23T05:19:07.593Z,5.57
2023-02-23T05:20:12.426Z,5.18
2023-02-23T05:21:15.299Z,4.55
2023-02-23T05:22:18.284Z,4.90
2023-02-23T05:23:22.167Z,4.90
2023-02-23T05:24:25.945Z,5.32
2023-02-23T05:25:28.777Z,5.13
2023-02-23T05:26:31.919Z,5.63
2023-02-23T05:27:34.749Z,5.22
2023-02-23T05:28:39.889Z,5.03
2023-02-23T05:29:42.982Z,5.30
2023-02-23T05:30:45.797Z,5.30
2023-02-23T05:31:48.974Z,5.47
2023-02-23T05:32:51.786Z,5.47
2023-02-23T05:33:54.734Z,5.30
2023-02-23T05:34:57.463Z,5.80
2023-02-23T05:36:00.332Z,4.57
2023-02-23T05:37:03.363Z,4.70
2023-02-23T05:38:06.174Z,4.95
2023-02-23T05:39:09.144Z,4.80
2023-02-23T05:40:12.465Z,5.65
2023-02-23T05:41:18.687Z,5.03
2023-02-23T05:42:21.660Z,4.60
2023-02-23T05:43:24.598Z,5.05
2023-02-23T05:44:27.909Z,4.78
2023-02-23T05:45:30.660Z,4.85
2023-02-23T05:46:33.807Z,4.70
2023-02-23T05:47:39.060Z,5.57
2023-02-23T05:48:42.418Z,4.82
2023-02-23T05:49:46.489Z,4.35
2023-02-23T05:50:49.880Z,4.72
2023-02-23T05:51:52.814Z,4.10
2023-02-23T05:52:55.651Z,4.65
2023-02-23T05:53:58.657Z,4.60
2023-02-23T05:55:01.584Z,4.55
2023-02-23T05:56:05.939Z,4.82
2023-02-23T05:57:08.778Z,4.80
2023-02-23T05:58:11.585Z,4.55
2023-02-23T05:59:14.497Z,4.45
2023-02-23T06:00:18.355Z,4.57
2023-02-23T06:01:22.151Z,4.07
2023-02-23T06:02:25.009Z,5.47
2023-02-23T06:03:27.844Z,4.70
2023-02-23T06:04:30.742Z,4.65
2023-02-23T06:05:33.514Z,4.45
2023-02-23T06:06:36.473Z,4.20
2023-02-23T06:07:40.043Z,5.10
2023-02-23T06:08:43.007Z,4.63
2023-02-23T06:09:45.836Z,4.53
2023-02-23T06:10:48.662Z,4.32
2023-02-23T06:11:51.833Z,4.72
2023-02-23T06:12:54.648Z,4.55
2023-02-23T06:14:00.905Z,5.13
2023-02-23T06:15:03.957Z,5.03
2023-02-23T06:16:08.726Z,5.60
2023-02-23T06:17:11.670Z,4.03
2023-02-23T06:18:14.627Z,4.72
2023-02-23T06:19:17.489Z,4.80
2023-02-23T06:20:20.355Z,4.55
2023-02-23T06:21:23.226Z,4.60
2023-02-23T06:22:26.012Z,5.28
2023-02-23T06:23:29.975Z,4.45
2023-02-23T06:24:32.843Z,4.68
2023-02-23T06:25:35.589Z,4.35
2023-02-23T06:26:38.462Z,4.82
2023-02-23T06:27:42.389Z,5.40
2023-02-23T06:28:45.199Z,5.63
2023-02-23T06:29:47.941Z,4.93
2023-02-23T06:30:54.902Z,5.10
2023-02-23T06:32:00.455Z,5.68
2023-02-23T06:33:03.957Z,5.13
2023-02-23T06:34:06.948Z,6.10
2023-02-23T06:35:10.222Z,5.47
2023-02-23T06:36:13.074Z,5.03
2023-02-23T06:37:15.863Z,5.88
2023-02-23T06:38:19.092Z,5.53
2023-02-23T06:39:21.950Z,5.95
2023-02-23T06:40:25.356Z,5.80
2023-02-23T06:41:28.430Z,5.30
2023-02-23T06:42:31.273Z,5.68
2023-02-23T06:43:34.042Z,4.97
2023-02-23T06:44:37.483Z,5.85
2023-02-23T06:45:41.132Z,6.00
2023-02-23T06:46:43.912Z,5.70
2023-02-23T06:47:47.771Z,5.82
2023-02-23T06:48:54.509Z,5.47
2023-02-23T06:49:57.477Z,5.95
2023-02-23T06:51:00.789Z,6.22
2023-02-23T06:52:03.632Z,5.45
2023-02-23T06:53:06.535Z,5.82
2023-02-23T06:54:09.386Z,5.88
2023-02-23T06:55:13.521Z,5.40
2023-02-23T06:56:16.430Z,6.00
2023-02-23T06:57:19.635Z,5.78
2023-02-23T06:58:22.473Z,5.93
2023-02-23T06:59:25.233Z,5.72
2023-02-23T07:00:28.042Z,5.50
2023-02-23T07:01:31.348Z,5.57
2023-02-23T07:02:35.840Z,5.72
2023-02-23T07:03:38.987Z,5.25
2023-02-23T07:04:41.863Z,5.75
2023-02-23T07:05:44.731Z,5.90
2023-02-23T07:06:48.080Z,4.97
2023-02-23T07:07:51.979Z,5.40
2023-02-23T07:08:58.298Z,5.25
2023-02-23T07:10:01.096Z,5.25
2023-02-23T07:11:13.540Z,6.32
2023-02-23T07:12:16.319Z,5.93
2023-02-23T07:13:20.713Z,5.18
2023-02-23T07:14:26.842Z,5.85
2023-02-23T07:15:30.228Z,5.45
2023-02-23T07:16:33.152Z,6.20
2023-02-23T07:17:36.352Z,5.25
2023-02-23T07:18:39.118Z,6.07
2023-02-23T07:19:41.983Z,5.45
2023-02-23T07:20:45.135Z,5.35
2023-02-23T07:21:47.936Z,5.22
2023-02-23T07:22:51.174Z,5.30
2023-02-23T07:23:53.943Z,5.82
2023-02-23T07:24:57.912Z,5.70
2023-02-23T07:26:01.204Z,5.80
2023-02-23T07:27:04.091Z,6.60
2023-02-23T07:28:06.996Z,5.25
2023-02-23T07:29:12.611Z,6.07
2023-02-23T07:30:15.915Z,5.60
2023-02-23T07:31:19.090Z,5.57
2023-02-23T07:32:22.289Z,5.43
2023-02-23T07:33:26.196Z,5.65
2023-02-23T07:34:28.972Z,6.00
2023-02-23T07:35:32.167Z,6.38
2023-02-23T07:36:35.459Z,5.47
2023-02-23T07:37:38.298Z,6.03
2023-02-23T07:38:41.076Z,5.68
2023-02-23T07:39:44.389Z,5.88
2023-02-23T07:40:47.231Z,6.13
2023-02-23T07:41:50.033Z,5.30
2023-02-23T07:42:55.650Z,5.82
2023-02-23T07:44:01.755Z,6.00
2023-02-23T07:45:05.461Z,4.80
2023-02-23T07:46:09.015Z,5.70
2023-02-23T07:47:12.194Z,5.40
2023-02-23T07:48:15.404Z,5.32
2023-02-23T07:49:18.235Z,5.60
2023-02-23T07:50:21.352Z,5.57
2023-02-23T07:51:24.380Z,5.35
2023-02-23T07:52:27.164Z,4.90
2023-02-23T07:53:30.071Z,5.30
2023-02-23T07:54:32.853Z,5.13
2023-02-23T07:55:38.863Z,5.05
2023-02-23T07:56:43.210Z,5.90
2023-02-23T07:57:46.019Z,5.43
2023-02-23T07:58:48.935Z,4.93
2023-02-23T07:59:51.876Z,5.82
2023-02-23T08:00:55.375Z,5.50
2023-02-23T08:01:58.247Z,5.22
2023-02-23T08:03:01.683Z,5.30
2023-02-23T08:04:04.562Z,5.80
2023-02-23T08:05:07.589Z,5.95
2023-02-23T08:06:10.356Z,5.40
2023-02-23T08:07:13.131Z,5.50
2023-02-23T08:08:16.243Z,6.13
2023-02-23T08:09:19.016Z,5.50
2023-02-23T08:10:22.708Z,5.70
2023-02-23T08:11:28.839Z,5.60
2023-02-23T08:12:34.362Z,6.30
2023-02-23T08:13:38.052Z,5.05
2023-02-23T08:14:40.927Z,5.60
2023-02-23T08:15:44.353Z,5.93
2023-02-23T08:16:47.324Z,5.32
2023-02-23T08:17:50.125Z,5.78
2023-02-23T08:18:52.971Z,5.80
2023-02-23T08:19:55.859Z,5.38
2023-02-23T08:21:00.647Z,5.32
2023-02-23T08:22:04.354Z,5.65
2023-02-23T08:23:07.163Z,4.75
2023-02-23T08:24:11.155Z,5.22
2023-02-23T08:25:13.926Z,5.55
2023-02-23T08:26:16.851Z,5.65
2023-02-23T08:27:20.277Z,4.72
2023-02-23T08:28:23.138Z,5.03
2023-02-23T08:29:25.918Z,4.90
2023-02-23T08:30:28.684Z,5.60
2023-02-23T08:31:31.647Z,5.75
2023-02-23T08:32:35.409Z,5.32
2023-02-23T08:33:39.449Z,5.35
2023-02-23T08:34:44.455Z,5.85
2023-02-23T08:35:47.302Z,5.38
2023-02-23T08:36:50.505Z,5.55
2023-02-23T08:37:53.562Z,5.80
2023-02-23T08:38:56.392Z,5.32
2023-02-23T08:40:00.974Z,5.53
2023-02-23T08:41:05.948Z,5.32
2023-02-23T08:42:09.320Z,5.53
2023-02-23T08:43:12.148Z,5.57
2023-02-23T08:44:15.152Z,5.68
2023-02-23T08:45:18.905Z,5.70
2023-02-23T08:46:22.534Z,7.00
2023-02-23T08:47:25.356Z,6.35
2023-02-23T08:48:28.205Z,6.22
2023-02-23T08:49:32.670Z,5.60
2023-02-23T08:50:35.551Z,6.05
2023-02-23T08:51:38.778Z,6.22
2023-02-23T08:52:42.718Z,6.22
2023-02-23T08:53:45.494Z,5.28
2023-02-23T08:54:48.442Z,5.35
2023-02-23T08:56:02.813Z,6.00
2023-02-23T08:57:05.721Z,5.53
2023-02-23T08:58:10.959Z,5.60
2023-02-23T08:59:14.560Z,5.60
2023-02-23T09:00:17.960Z,5.90
2023-02-23T09:01:24.684Z,5.35
2023-02-23T09:02:28.466Z,6.00
2023-02-23T09:03:34.563Z,6.93
2023-02-23T09:04:38.046Z,5.18
2023-02-23T09:05:41.085Z,5.78
2023-02-23T09:06:44.069Z,5.78
2023-02-23T09:07:47.324Z,5.13
2023-02-23T09:08:50.507Z,6.03
2023-02-23T09:09:57.159Z,5.15
2023-02-23T09:10:59.965Z,6.07
2023-02-23T09:12:02.750Z,5.43
2023-02-23T09:13:05.647Z,6.65
2023-02-23T09:14:09.031Z,5.63
2023-02-23T09:15:12.637Z,5.63
2023-02-23T09:16:15.821Z,5.38
2023-02-23T09:17:19.006Z,5.25
2023-02-23T09:18:22.786Z,6.25
2023-02-23T09:19:27.823Z,5.80
2023-02-23T09:20:31.561Z,5.07
2023-02-23T09:21:34.704Z,5.78
2023-02-23T09:22:37.567Z,5.50
2023-02-23T09:23:40.368Z,6.00
2023-02-23T09:24:43.279Z,5.68
2023-02-23T09:25:46.806Z,5.03
2023-02-23T09:26:49.969Z,5.28
2023-02-23T09:27:54.177Z,5.97
2023-02-23T09:28:59.540Z,5.60
2023-02-23T09:30:02.659Z,6.07
2023-02-23T09:31:11.362Z,6.22
2023-02-23T09:32:14.366Z,5.97
2023-02-23T09:33:18.405Z,5.90
2023-02-23T09:34:21.192Z,6.05
2023-02-23T09:35:25.451Z,6.30
2023-02-23T09:36:29.164Z,6.32
2023-02-23T09:37:31.974Z,6.07
2023-02-23T09:38:35.004Z,5.97
2023-02-23T09:39:39.080Z,5.95
2023-02-23T09:40:48.977Z,5.72
2023-02-23T09:42:19.927Z,5.25
2023-02-23T09:43:54.773Z,5.95
2023-02-23T09:45:27.396Z,5.60
2023-02-23T09:46:33.483Z,5.80
2023-02-23T09:48:09.713Z,5.75
2023-02-23T09:49:18.107Z,4.90
2023-02-23T09:50:27.231Z,5.72
2023-02-23T09:51:31.840Z,5.97
2023-02-23T09:52:41.632Z,6.05
2023-02-23T09:53:50.511Z,5.57
2023-02-23T09:54:53.699Z,5.90
2023-02-23T09:55:58.709Z,5.20
2023-02-23T09:57:05.252Z,5.72
2023-02-23T09:58:24.586Z,5.70
2023-02-23T09:59:29.097Z,5.57
2023-02-23T10:00:38.170Z,6.10
2023-02-23T10:01:49.575Z,6.25
2023-02-23T10:03:07.063Z,5.65
2023-02-23T10:04:26.109Z,6.18
2023-02-23T10:05:33.226Z,5.75
2023-02-23T10:06:36.156Z,6.00
2023-02-23T10:08:03.618Z,5.43
2023-02-23T10:09:34.540Z,5.57
2023-02-23T10:10:58.941Z,5.57
2023-02-23T10:12:26.739Z,5.38
2023-02-23T10:13:55.631Z,5.57
2023-02-23T10:15:48.708Z,5.78
2023-02-23T10:17:06.662Z,5.57
2023-02-23T10:18:12.348Z,5.93
2023-02-23T10:19:48.156Z,6.43
2023-02-23T10:21:00.025Z,6.10
2023-02-23T10:22:06.675Z,6.13
2023-02-23T10:23:14.496Z,6.70
2023-02-23T10:24:27.211Z,5.65
2023-02-23T10:25:34.139Z,5.55
2023-02-23T10:26:46.702Z,6.43
2023-02-23T10:27:50.859Z,6.15
2023-02-23T10:28:59.043Z,6.70
2023-02-23T10:30:05.155Z,5.53
2023-02-23T10:31:37.742Z,6.32
2023-02-23T10:33:01.735Z,6.07
2023-02-23T10:34:12.215Z,6.30
2023-02-23T10:35:19.617Z,5.85
2023-02-23T10:36:51.336Z,6.70
2023-02-23T10:37:55.204Z,5.80
2023-02-23T10:38:58.013Z,7.07
2023-02-23T10:40:00.927Z,6.55
2023-02-23T10:41:04.506Z,5.50
2023-02-23T10:42:16.202Z,6.32
2023-02-23T10:43:19.015Z,6.07
2023-02-23T10:44:25.334Z,5.85
2023-02-23T10:45:29.842Z,6.47
2023-02-23T10:46:40.046Z,6.60
2023-02-23T10:47:42.916Z,6.28
2023-02-23T10:48:46.856Z,6.45
2023-02-23T10:49:55.854Z,6.43
2023-02-23T10:51:06.191Z,5.95
2023-02-23T10:52:18.750Z,6.07
2023-02-23T10:53:35.966Z,5.47
2023-02-23T10:54:47.944Z,6.30
2023-02-23T10:56:08.363Z,5.53
2023-02-23T10:57:19.867Z,5.63
2023-02-23T10:58:22.997Z,5.68
2023-02-23T10:59:26.551Z,5.90
2023-02-23T11:00:33.425Z,6.00
2023-02-23T11:02:02.224Z,6.40
2023-02-23T11:03:37.434Z,5.45
2023-02-23T11:04:53.306Z,5.15
2023-02-23T11:05:56.347Z,5.63
2023-02-23T11:07:21.858Z,5.93
2023-02-23T11:08:37.094Z,5.55
2023-02-23T11:09:47.050Z,5.63
2023-02-23T11:11:19.433Z,6.00
2023-02-23T11:12:36.069Z,5.13
2023-02-23T11:13:42.021Z,5.47
2023-02-23T11:14:44.813Z,6.03
2023-02-23T11:15:51.004Z,5.60
2023-02-23T11:16:56.046Z,6.03
2023-02-23T11:18:01.764Z,5.80
2023-02-23T11:19:06.195Z,5.72
2023-02-23T11:20:36.042Z,5.68
2023-02-23T11:21:40.355Z,5.28
2023-02-23T11:22:43.604Z,5.75
2023-02-23T11:23:46.580Z,5.70
2023-02-23T11:24:50.112Z,5.40
2023-02-23T11:26:00.348Z,5.15
2023-02-23T11:27:07.309Z,5.78
2023-02-23T11:28:22.802Z,6.50
2023-02-23T11:29:33.765Z,5.68
2023-02-23T11:30:38.442Z,5.25
2023-02-23T11:31:51.357Z,5.63
2023-02-23T11:32:57.856Z,5.15
2023-02-23T11:34:03.890Z,5.63
2023-02-23T11:35:21.935Z,5.40
2023-02-23T11:36:24.747Z,5.70
2023-02-23T11:37:31.787Z,5.07
2023-02-23T11:38:34.990Z,5.10
2023-02-23T11:39:38.895Z,5.22
2023-02-23T11:40:41.968Z,5.78
2023-02-23T11:41:44.882Z,4.95
2023-02-23T11:43:05.270Z,4.97
2023-02-23T11:44:18.741Z,5.13
2023-02-23T11:45:23.407Z,5.25
2023-02-23T11:46:28.468Z,5.03
2023-02-23T11:47:33.497Z,5.18
2023-02-23T11:48:49.549Z,5.22
2023-02-23T11:49:53.498Z,5.53
2023-02-23T11:50:57.309Z,4.28
2023-02-23T11:52:00.351Z,4.93
2023-02-23T11:53:28.796Z,4.57
2023-02-23T11:54:36.035Z,4.68
2023-02-23T11:55:39.270Z,4.88
2023-02-23T11:56:52.395Z,4.32
2023-02-23T11:58:09.262Z,4.70
2023-02-23T11:59:18.926Z,5.03
2023-02-23T12:00:28.062Z,4.72
2023-02-23T12:01:46.727Z,5.20
2023-02-23T12:02:58.907Z,5.30
2023-02-23T12:04:02.415Z,5.18
2023-02-23T12:05:10.128Z,4.88
2023-02-23T12:06:13.190Z,4.45
2023-02-23T12:07:53.650Z,4.90
2023-02-23T12:09:13.361Z,4.95
2023-02-23T12:10:25.081Z,5.15
2023-02-23T12:11:32.524Z,5.18
2023-02-23T12:13:03.349Z,5.30
2023-02-23T12:14:32.483Z,5.03
2023-02-23T12:15:50.759Z,5.03
2023-02-23T12:16:59.192Z,5.40
2023-02-23T12:18:27.091Z,5.53
2023-02-23T12:19:55.954Z,4.82
2023-02-23T12:21:12.832Z,4.88
2023-02-23T12:22:26.969Z,4.55
2023-02-23T12:23:33.848Z,4.57
2023-02-23T12:24:59.823Z,4.80
2023-02-23T12:26:13.971Z,4.53
2023-02-23T12:27:23.612Z,4.88
2023-02-23T12:28:59.112Z,4.47
2023-02-23T12:30:25.083Z,4.75
2023-02-23T12:31:54.729Z,4.60
2023-02-23T12:33:00.713Z,4.03
2023-02-23T12:34:11.239Z,4.22
2023-02-23T12:35:23.542Z,4.63
2023-02-23T12:36:51.318Z,4.40
2023-02-23T12:38:02.863Z,4.43
2023-02-23T12:39:30.999Z,4.18
2023-02-23T12:40:38.369Z,4.65
2023-02-23T12:43:12.125Z,4.65
2023-02-23T12:44:26.944Z,4.10
2023-02-23T12:45:40.438Z,4.88
2023-02-23T12:46:49.219Z,4.22
2023-02-23T12:48:15.383Z,4.70
2023-02-23T12:49:43.710Z,4.30
2023-02-23T12:50:53.614Z,4.72
2023-02-23T12:52:08.845Z,5.18
2023-02-23T12:53:35.832Z,4.35
2023-02-23T12:54:38.766Z,4.75
2023-02-23T12:56:10.110Z,4.55
2023-02-23T12:57:42.859Z,4.50
2023-02-23T12:58:58.385Z,4.53
2023-02-23T13:00:30.833Z,4.68
2023-02-23T13:01:43.955Z,4.65
2023-02-23T13:04:37.951Z,4.40
2023-02-23T13:06:22.489Z,4.90
2023-02-23T13:07:35.146Z,4.45
2023-02-23T13:08:59.584Z,4.22
2023-02-23T13:10:30.581Z,4.25
2023-02-23T13:11:51.425Z,3.90
2023-02-23T13:13:50.675Z,3.88
2023-02-23T13:15:24.019Z,3.85
2023-02-23T13:16:53.824Z,3.92
2023-02-23T13:18:11.686Z,4.70
2023-02-23T13:19:21.659Z,3.72
2023-02-23T13:20:37.662Z,4.60
2023-02-23T13:21:44.985Z,4.20
2023-02-23T13:23:56.420Z,4.30
2023-02-23T13:25:04.991Z,4.38
2023-02-23T13:26:47.445Z,4.50
2023-02-23T13:27:55.814Z,4.50
2023-02-23T13:29:21.838Z,5.00
2023-02-23T13:30:24.682Z,4.15
2023-02-23T13:31:31.989Z,4.38
2023-02-23T13:32:36.661Z,4.25
2023-02-23T13:33:44.388Z,4.53
2023-02-23T13:35:05.365Z,4.18
2023-02-23T13:36:08.655Z,4.80
2023-02-23T13:37:17.171Z,4.60
2023-02-23T13:38:31.764Z,3.83
2023-02-23T13:40:15.286Z,4.28
2023-02-23T13:41:28.435Z,4.05
2023-02-23T13:42:44.911Z,4.03
2023-02-23T13:44:01.787Z,4.57
2023-02-23T13:45:24.636Z,3.92
2023-02-23T13:46:39.309Z,4.20
2023-02-23T13:47:57.402Z,3.75
2023-02-23T13:49:17.518Z,4.30
2023-02-23T13:50:47.912Z,4.47
2023-02-23T13:52:01.545Z,4.32
2023-02-23T13:53:08.655Z,4.32
2023-02-23T13:54:14.072Z,4.20
2023-02-23T13:55:48.260Z,4.30
2023-02-23T13:56:58.802Z,4.20
2023-02-23T13:58:17.622Z,3.80
2023-02-23T13:59:23.400Z,3.97
2023-02-23T14:00:26.290Z,4.03
2023-02-23T14:01:32.214Z,4.55
2023-02-23T14:02:51.394Z,4.28
2023-02-23T14:03:57.872Z,3.88
2023-02-23T14:05:16.534Z,4.18
2023-02-23T14:06:22.583Z,4.13
2023-02-23T14:07:31.711Z,4.15
2023-02-23T14:08:39.949Z,4.22
2023-02-23T14:09:55.309Z,4.03
2023-02-23T14:10:58.290Z,4.00
2023-02-23T14:12:28.493Z,3.55
2023-02-23T14:13:34.425Z,3.80
2023-02-23T14:14:37.630Z,4.28
2023-02-23T14:15:40.662Z,3.50
2023-02-23T14:16:46.615Z,3.58
2023-02-23T14:18:02.762Z,3.83
2023-02-23T14:19:08.517Z,4.10
2023-02-23T14:20:13.429Z,4.45
2023-02-23T14:21:21.257Z,3.97
2023-02-23T14:22:24.367Z,3.70
2023-02-23T14:23:33.786Z,3.88
2023-02-23T14:24:37.140Z,3.72
2023-02-23T14:25:41.213Z,3.70
2023-02-23T14:27:10.496Z,3.72
2023-02-23T14:28:32.790Z,3.67
2023-02-23T14:29:44.179Z,3.08
2023-02-23T14:30:59.656Z,3.95
2023-02-23T14:32:25.486Z,3.45
2023-02-23T14:33:50.501Z,3.72
2023-02-23T14:34:59.672Z,3.17
2023-02-23T14:36:03.654Z,4.07
2023-02-23T14:37:19.726Z,3.25
2023-02-23T14:38:47.612Z,2.97
2023-02-23T14:39:53.462Z,3.58
2023-02-23T14:40:56.636Z,3.22
2023-02-23T14:42:00.626Z,3.60
2023-02-23T14:43:24.152Z,3.30
2023-02-23T14:44:36.518Z,3.35
2023-02-23T14:45:39.508Z,3.95
2023-02-23T14:47:07.500Z,3.80
2023-02-23T14:48:16.041Z,2.78
2023-02-23T14:49:21.933Z,3.25
2023-02-23T14:50:36.305Z,2.92
2023-02-23T14:51:48.829Z,3.05
2023-02-23T14:52:53.576Z,3.28
2023-02-23T14:54:00.151Z,3.35
2023-02-23T14:55:12.352Z,3.22
2023-02-23T14:56:32.617Z,3.20
2023-02-23T14:57:43.762Z,3.22
2023-02-23T14:58:51.840Z,2.92
2023-02-23T14:59:59.760Z,3.10
2023-02-23T15:01:02.594Z,3.80
2023-02-23T15:02:11.593Z,3.33
2023-02-23T15:03:14.373Z,3.28
2023-02-23T15:04:24.321Z,3.35
2023-02-23T15:05:37.377Z,3.25
2023-02-23T15:06:47.193Z,3.55
2023-02-23T15:07:52.155Z,3.17
2023-02-23T15:08:55.019Z,3.33
2023-02-23T15:10:00.149Z,3.03
2023-02-23T15:11:10.454Z,2.90
2023-02-23T15:12:28.759Z,3.58
2023-02-23T15:14:39.308Z,3.75
2023-02-23T15:15:49.964Z,2.67
2023-02-23T15:16:53.197Z,3.75
2023-02-23T15:17:59.132Z,3.05
2023-02-23T15:19:04.410Z,3.22
2023-02-23T15:20:16.828Z,3.30
2023-02-23T15:21:24.385Z,3.47
2023-02-23T15:22:37.954Z,3.17
2023-02-23T15:24:48.107Z,2.75
2023-02-23T15:25:53.057Z,3.05
2023-02-23T15:26:57.205Z,4.05
2023-02-23T15:28:09.927Z,3.47
2023-02-23T15:29:18.598Z,2.97
2023-02-23T15:30:31.180Z,3.75
2023-02-23T15:31:35.200Z,3.40
2023-02-23T15:32:39.089Z,3.40
2023-02-23T15:33:43.070Z,3.28
2023-02-23T15:34:46.303Z,3.65
2023-02-23T15:36:27.829Z,3.72
2023-02-23T15:37:55.294Z,3.10
2023-02-23T15:39:15.225Z,3.08
2023-02-23T15:40:22.140Z,3.22